sensor_id;sensor_type;location;lat;lon;timestamp;P1;durP1;ratioP1;P2;durP2;ratioP2
14876;SDS011;22152;48.158;17.118;2022-12-18T00:01:04;49.20;;;25.20;;
14876;SDS011;22152;48.158;17.118;2022-12-18T00:03:42;51.33;;;24.02;;
14876;SDS011;22152;48.158;17.118;2022-12-18T00:06:08;45.53;;;24.00;;
14876;SDS011;22152;48.158;17.118;2022-12-18T00:08:34;43.30;;;22.65;;
14876;SDS011;22152;48.158;17.118;2022-12-18T00:11:03;42.40;;;22.15;;
14876;SDS011;22152;48.158;17.118;2022-12-18T00:13:34;49.90;;;23.33;;
14876;SDS011;22152;48.158;17.118;2022-12-18T00:16:04;46.10;;;23.60;;
14876;SDS011;22152;48.158;17.118;2022-12-18T00:18:33;50.47;;;25.53;;
14876;SDS011;22152;48.158;17.118;2022-12-18T00:20:59;50.72;;;24.67;;
14876;SDS011;22152;48.158;17.118;2022-12-18T00:23:28;50.63;;;23.50;;
14876;SDS011;22152;48.158;17.118;2022-12-18T00:25:58;51.70;;;24.30;;
14876;SDS011;22152;48.158;17.118;2022-12-18T00:28:25;58.80;;;27.60;;
14876;SDS011;22152;48.158;17.118;2022-12-18T00:30:58;56.47;;;27.08;;
14876;SDS011;22152;48.158;17.118;2022-12-18T00:33:27;54.30;;;26.05;;
14876;SDS011;22152;48.158;17.118;2022-12-18T00:35:53;49.33;;;23.33;;
14876;SDS011;22152;48.158;17.118;2022-12-18T00:38:19;49.28;;;24.05;;
14876;SDS011;22152;48.158;17.118;2022-12-18T00:40:45;56.65;;;25.95;;
14876;SDS011;22152;48.158;17.118;2022-12-18T00:43:11;57.55;;;26.98;;
14876;SDS011;22152;48.158;17.118;2022-12-18T00:45:37;53.65;;;25.77;;
14876;SDS011;22152;48.158;17.118;2022-12-18T00:48:03;55.65;;;27.30;;
14876;SDS011;22152;48.158;17.118;2022-12-18T00:50:30;52.13;;;26.38;;
14876;SDS011;22152;48.158;17.118;2022-12-18T00:52:55;51.65;;;26.05;;
14876;SDS011;22152;48.158;17.118;2022-12-18T00:55:21;54.45;;;27.65;;
14876;SDS011;22152;48.158;17.118;2022-12-18T00:57:47;58.15;;;29.00;;
14876;SDS011;22152;48.158;17.118;2022-12-18T01:00:14;57.53;;;28.63;;
14876;SDS011;22152;48.158;17.118;2022-12-18T01:02:42;64.50;;;30.38;;
14876;SDS011;22152;48.158;17.118;2022-12-18T01:05:09;68.15;;;30.15;;
14876;SDS011;22152;48.158;17.118;2022-12-18T01:07:38;63.35;;;29.63;;
14876;SDS011;22152;48.158;17.118;2022-12-18T01:10:05;59.58;;;28.67;;
14876;SDS011;22152;48.158;17.118;2022-12-18T01:12:34;60.25;;;29.05;;
14876;SDS011;22152;48.158;17.118;2022-12-18T01:15:00;58.67;;;28.60;;
14876;SDS011;22152;48.158;17.118;2022-12-18T01:17:27;64.28;;;29.67;;
14876;SDS011;22152;48.158;17.118;2022-12-18T01:19:53;61.15;;;29.90;;
14876;SDS011;22152;48.158;17.118;2022-12-18T01:22:18;57.67;;;27.25;;
14876;SDS011;22152;48.158;17.118;2022-12-18T01:24:44;58.28;;;28.60;;
14876;SDS011;22152;48.158;17.118;2022-12-18T01:27:10;62.55;;;28.73;;
14876;SDS011;22152;48.158;17.118;2022-12-18T01:29:36;56.80;;;26.70;;
14876;SDS011;22152;48.158;17.118;2022-12-18T01:32:02;63.17;;;28.83;;
14876;SDS011;22152;48.158;17.118;2022-12-18T01:34:28;64.80;;;29.45;;
14876;SDS011;22152;48.158;17.118;2022-12-18T01:36:54;58.03;;;28.13;;
14876;SDS011;22152;48.158;17.118;2022-12-18T01:39:20;60.42;;;29.00;;
14876;SDS011;22152;48.158;17.118;2022-12-18T01:41:46;71.55;;;29.40;;
14876;SDS011;22152;48.158;17.118;2022-12-18T01:47:24;74.43;;;32.60;;
14876;SDS011;22152;48.158;17.118;2022-12-18T01:49:51;66.97;;;31.15;;
14876;SDS011;22152;48.158;17.118;2022-12-18T01:52:18;69.00;;;30.55;;
14876;SDS011;22152;48.158;17.118;2022-12-18T01:54:45;67.10;;;32.92;;
14876;SDS011;22152;48.158;17.118;2022-12-18T01:57:14;66.00;;;30.20;;
14876;SDS011;22152;48.158;17.118;2022-12-18T01:59:40;70.80;;;31.48;;
14876;SDS011;22152;48.158;17.118;2022-12-18T02:02:08;61.85;;;30.95;;
14876;SDS011;22152;48.158;17.118;2022-12-18T02:04:36;59.13;;;29.02;;
14876;SDS011;22152;48.158;17.118;2022-12-18T02:09:51;68.32;;;30.10;;
14876;SDS011;22152;48.158;17.118;2022-12-18T02:12:32;68.75;;;29.85;;
14876;SDS011;22152;48.158;17.118;2022-12-18T02:15:09;67.63;;;31.08;;
14876;SDS011;22152;48.158;17.118;2022-12-18T02:17:50;77.68;;;34.15;;
14876;SDS011;22152;48.158;17.118;2022-12-18T02:20:25;82.80;;;36.30;;
14876;SDS011;22152;48.158;17.118;2022-12-18T02:23:19;73.15;;;33.38;;
14876;SDS011;22152;48.158;17.118;2022-12-18T02:28:55;77.10;;;33.70;;
14876;SDS011;22152;48.158;17.118;2022-12-18T02:31:43;83.93;;;37.33;;
14876;SDS011;22152;48.158;17.118;2022-12-18T02:34:15;80.50;;;36.65;;
14876;SDS011;22152;48.158;17.118;2022-12-18T02:36:45;92.53;;;39.55;;
14876;SDS011;22152;48.158;17.118;2022-12-18T02:39:12;88.88;;;38.63;;
14876;SDS011;22152;48.158;17.118;2022-12-18T02:41:49;86.03;;;39.88;;
14876;SDS011;22152;48.158;17.118;2022-12-18T02:44:17;101.88;;;41.72;;
14876;SDS011;22152;48.158;17.118;2022-12-18T02:46:50;97.85;;;41.25;;
14876;SDS011;22152;48.158;17.118;2022-12-18T02:52:35;95.63;;;40.10;;
14876;SDS011;22152;48.158;17.118;2022-12-18T03:03:44;87.43;;;36.75;;
14876;SDS011;22152;48.158;17.118;2022-12-18T03:06:26;127.95;;;43.13;;
14876;SDS011;22152;48.158;17.118;2022-12-18T03:09:08;92.78;;;39.08;;
14876;SDS011;22152;48.158;17.118;2022-12-18T03:11:39;100.55;;;41.00;;
14876;SDS011;22152;48.158;17.118;2022-12-18T03:14:32;102.18;;;38.40;;
14876;SDS011;22152;48.158;17.118;2022-12-18T03:17:00;96.57;;;35.92;;
14876;SDS011;22152;48.158;17.118;2022-12-18T03:19:29;94.85;;;39.53;;
14876;SDS011;22152;48.158;17.118;2022-12-18T03:22:01;98.57;;;40.00;;
14876;SDS011;22152;48.158;17.118;2022-12-18T03:24:38;86.10;;;37.78;;
14876;SDS011;22152;48.158;17.118;2022-12-18T03:27:06;89.85;;;39.67;;
14876;SDS011;22152;48.158;17.118;2022-12-18T03:32:23;96.82;;;39.05;;
14876;SDS011;22152;48.158;17.118;2022-12-18T03:34:58;94.38;;;39.33;;
14876;SDS011;22152;48.158;17.118;2022-12-18T03:37:32;90.05;;;38.67;;
14876;SDS011;22152;48.158;17.118;2022-12-18T03:39:58;95.40;;;39.47;;
14876;SDS011;22152;48.158;17.118;2022-12-18T03:42:26;100.22;;;39.83;;
14876;SDS011;22152;48.158;17.118;2022-12-18T03:48:01;99.60;;;40.08;;
14876;SDS011;22152;48.158;17.118;2022-12-18T03:56:07;92.85;;;39.45;;
14876;SDS011;22152;48.158;17.118;2022-12-18T03:58:39;96.30;;;42.47;;
14876;SDS011;22152;48.158;17.118;2022-12-18T04:01:16;104.15;;;42.53;;
14876;SDS011;22152;48.158;17.118;2022-12-18T04:03:46;103.90;;;41.92;;
14876;SDS011;22152;48.158;17.118;2022-12-18T04:06:17;104.40;;;39.60;;
14876;SDS011;22152;48.158;17.118;2022-12-18T04:08:44;107.05;;;45.03;;
14876;SDS011;22152;48.158;17.118;2022-12-18T04:11:14;101.88;;;40.72;;
14876;SDS011;22152;48.158;17.118;2022-12-18T04:13:42;100.47;;;42.58;;
14876;SDS011;22152;48.158;17.118;2022-12-18T04:16:15;108.05;;;43.92;;
14876;SDS011;22152;48.158;17.118;2022-12-18T04:18:43;105.50;;;42.88;;
14876;SDS011;22152;48.158;17.118;2022-12-18T04:21:09;106.72;;;44.75;;
14876;SDS011;22152;48.158;17.118;2022-12-18T04:23:36;112.05;;;44.90;;
14876;SDS011;22152;48.158;17.118;2022-12-18T04:26:02;120.65;;;46.63;;
14876;SDS011;22152;48.158;17.118;2022-12-18T04:28:43;124.75;;;48.17;;
14876;SDS011;22152;48.158;17.118;2022-12-18T04:31:09;114.20;;;47.13;;
14876;SDS011;22152;48.158;17.118;2022-12-18T04:33:35;116.43;;;44.25;;
14876;SDS011;22152;48.158;17.118;2022-12-18T04:36:02;124.03;;;46.97;;
14876;SDS011;22152;48.158;17.118;2022-12-18T04:38:28;118.88;;;46.05;;
14876;SDS011;22152;48.158;17.118;2022-12-18T04:43:28;123.47;;;43.92;;
14876;SDS011;22152;48.158;17.118;2022-12-18T04:46:00;125.75;;;47.40;;
14876;SDS011;22152;48.158;17.118;2022-12-18T04:48:31;126.78;;;45.53;;
14876;SDS011;22152;48.158;17.118;2022-12-18T04:50:58;138.30;;;49.17;;
14876;SDS011;22152;48.158;17.118;2022-12-18T04:53:23;136.70;;;48.90;;
14876;SDS011;22152;48.158;17.118;2022-12-18T04:55:49;134.85;;;49.45;;
14876;SDS011;22152;48.158;17.118;2022-12-18T04:58:15;129.05;;;49.15;;
14876;SDS011;22152;48.158;17.118;2022-12-18T05:00:41;135.65;;;49.67;;
14876;SDS011;22152;48.158;17.118;2022-12-18T05:03:07;134.13;;;49.38;;
14876;SDS011;22152;48.158;17.118;2022-12-18T05:05:34;135.38;;;50.15;;
14876;SDS011;22152;48.158;17.118;2022-12-18T05:08:00;130.75;;;50.45;;
14876;SDS011;22152;48.158;17.118;2022-12-18T05:10:26;133.65;;;48.70;;
14876;SDS011;22152;48.158;17.118;2022-12-18T05:12:52;131.15;;;48.65;;
14876;SDS011;22152;48.158;17.118;2022-12-18T05:15:33;134.38;;;49.17;;
14876;SDS011;22152;48.158;17.118;2022-12-18T05:18:00;145.77;;;49.83;;
14876;SDS011;22152;48.158;17.118;2022-12-18T05:20:26;135.27;;;48.58;;
14876;SDS011;22152;48.158;17.118;2022-12-18T05:22:53;131.70;;;47.00;;
14876;SDS011;22152;48.158;17.118;2022-12-18T05:25:19;143.85;;;53.72;;
14876;SDS011;22152;48.158;17.118;2022-12-18T05:27:46;137.82;;;50.17;;
14876;SDS011;22152;48.158;17.118;2022-12-18T05:30:12;140.27;;;51.47;;
14876;SDS011;22152;48.158;17.118;2022-12-18T05:32:39;147.85;;;51.40;;
14876;SDS011;22152;48.158;17.118;2022-12-18T05:35:06;147.57;;;51.13;;
14876;SDS011;22152;48.158;17.118;2022-12-18T05:37:34;142.45;;;50.55;;
14876;SDS011;22152;48.158;17.118;2022-12-18T05:40:01;140.93;;;51.25;;
14876;SDS011;22152;48.158;17.118;2022-12-18T05:42:29;147.75;;;54.65;;
14876;SDS011;22152;48.158;17.118;2022-12-18T05:44:56;141.30;;;53.13;;
14876;SDS011;22152;48.158;17.118;2022-12-18T05:47:21;145.60;;;54.08;;
14876;SDS011;22152;48.158;17.118;2022-12-18T05:49:47;136.32;;;52.00;;
14876;SDS011;22152;48.158;17.118;2022-12-18T05:52:13;141.15;;;52.83;;
14876;SDS011;22152;48.158;17.118;2022-12-18T05:54:39;145.38;;;52.15;;
14876;SDS011;22152;48.158;17.118;2022-12-18T05:57:05;159.23;;;53.55;;
14876;SDS011;22152;48.158;17.118;2022-12-18T05:59:31;149.00;;;50.65;;
14876;SDS011;22152;48.158;17.118;2022-12-18T06:01:56;144.93;;;52.47;;
14876;SDS011;22152;48.158;17.118;2022-12-18T06:04:22;150.68;;;52.22;;
14876;SDS011;22152;48.158;17.118;2022-12-18T06:06:48;143.77;;;49.25;;
14876;SDS011;22152;48.158;17.118;2022-12-18T06:09:14;165.65;;;51.15;;
14876;SDS011;22152;48.158;17.118;2022-12-18T06:11:40;146.18;;;52.50;;
14876;SDS011;22152;48.158;17.118;2022-12-18T06:14:06;139.00;;;49.85;;
14876;SDS011;22152;48.158;17.118;2022-12-18T06:16:32;139.48;;;50.53;;
14876;SDS011;22152;48.158;17.118;2022-12-18T06:18:59;130.82;;;46.90;;
14876;SDS011;22152;48.158;17.118;2022-12-18T06:21:26;137.68;;;47.03;;
14876;SDS011;22152;48.158;17.118;2022-12-18T06:23:53;149.15;;;47.72;;
14876;SDS011;22152;48.158;17.118;2022-12-18T06:26:18;130.00;;;45.88;;
14876;SDS011;22152;48.158;17.118;2022-12-18T06:28:44;139.07;;;47.67;;
14876;SDS011;22152;48.158;17.118;2022-12-18T06:31:10;143.57;;;50.88;;
14876;SDS011;22152;48.158;17.118;2022-12-18T06:33:36;136.93;;;48.33;;
14876;SDS011;22152;48.158;17.118;2022-12-18T06:36:04;141.82;;;51.40;;
14876;SDS011;22152;48.158;17.118;2022-12-18T06:38:36;157.52;;;52.60;;
14876;SDS011;22152;48.158;17.118;2022-12-18T06:41:12;141.02;;;50.40;;
14876;SDS011;22152;48.158;17.118;2022-12-18T06:43:44;150.68;;;52.13;;
14876;SDS011;22152;48.158;17.118;2022-12-18T06:46:10;144.38;;;52.05;;
14876;SDS011;22152;48.158;17.118;2022-12-18T06:48:37;169.65;;;52.50;;
14876;SDS011;22152;48.158;17.118;2022-12-18T06:51:03;134.65;;;51.95;;
14876;SDS011;22152;48.158;17.118;2022-12-18T06:53:29;142.57;;;53.28;;
14876;SDS011;22152;48.158;17.118;2022-12-18T06:56:04;157.85;;;53.67;;
14876;SDS011;22152;48.158;17.118;2022-12-18T06:58:32;146.85;;;53.92;;
14876;SDS011;22152;48.158;17.118;2022-12-18T07:01:02;143.27;;;53.80;;
14876;SDS011;22152;48.158;17.118;2022-12-18T07:03:30;141.98;;;51.78;;
14876;SDS011;22152;48.158;17.118;2022-12-18T07:05:56;152.60;;;54.33;;
14876;SDS011;22152;48.158;17.118;2022-12-18T07:08:22;144.55;;;52.65;;
14876;SDS011;22152;48.158;17.118;2022-12-18T07:10:48;153.77;;;51.88;;
14876;SDS011;22152;48.158;17.118;2022-12-18T07:13:15;138.00;;;49.50;;
14876;SDS011;22152;48.158;17.118;2022-12-18T07:15:42;136.20;;;50.63;;
14876;SDS011;22152;48.158;17.118;2022-12-18T07:18:08;132.80;;;49.60;;
14876;SDS011;22152;48.158;17.118;2022-12-18T07:20:34;138.18;;;50.78;;
14876;SDS011;22152;48.158;17.118;2022-12-18T07:23:04;138.13;;;49.50;;
14876;SDS011;22152;48.158;17.118;2022-12-18T07:25:33;134.57;;;46.00;;
14876;SDS011;22152;48.158;17.118;2022-12-18T07:28:02;113.82;;;43.40;;
14876;SDS011;22152;48.158;17.118;2022-12-18T07:30:29;117.30;;;42.85;;
14876;SDS011;22152;48.158;17.118;2022-12-18T07:32:55;120.00;;;39.42;;
14876;SDS011;22152;48.158;17.118;2022-12-18T07:35:20;110.30;;;43.30;;
14876;SDS011;22152;48.158;17.118;2022-12-18T07:37:46;114.07;;;44.55;;
14876;SDS011;22152;48.158;17.118;2022-12-18T07:40:12;106.70;;;39.95;;
14876;SDS011;22152;48.158;17.118;2022-12-18T07:42:38;108.10;;;39.58;;
14876;SDS011;22152;48.158;17.118;2022-12-18T07:45:04;93.78;;;36.67;;
14876;SDS011;22152;48.158;17.118;2022-12-18T07:47:30;86.15;;;32.40;;
14876;SDS011;22152;48.158;17.118;2022-12-18T07:49:59;96.13;;;38.08;;
14876;SDS011;22152;48.158;17.118;2022-12-18T07:52:25;89.68;;;33.92;;
14876;SDS011;22152;48.158;17.118;2022-12-18T07:54:50;89.38;;;33.45;;
14876;SDS011;22152;48.158;17.118;2022-12-18T07:57:16;95.97;;;39.50;;
14876;SDS011;22152;48.158;17.118;2022-12-18T07:59:43;99.00;;;39.65;;
14876;SDS011;22152;48.158;17.118;2022-12-18T08:02:08;105.13;;;44.85;;
14876;SDS011;22152;48.158;17.118;2022-12-18T08:04:34;115.00;;;43.75;;
14876;SDS011;22152;48.158;17.118;2022-12-18T08:07:00;120.18;;;47.75;;
14876;SDS011;22152;48.158;17.118;2022-12-18T08:09:26;115.75;;;46.78;;
14876;SDS011;22152;48.158;17.118;2022-12-18T08:11:51;113.03;;;44.97;;
14876;SDS011;22152;48.158;17.118;2022-12-18T08:14:17;112.10;;;43.10;;
14876;SDS011;22152;48.158;17.118;2022-12-18T08:16:43;109.32;;;44.20;;
14876;SDS011;22152;48.158;17.118;2022-12-18T08:19:09;103.22;;;44.75;;
14876;SDS011;22152;48.158;17.118;2022-12-18T08:21:35;93.38;;;42.38;;
14876;SDS011;22152;48.158;17.118;2022-12-18T08:24:02;95.10;;;40.75;;
14876;SDS011;22152;48.158;17.118;2022-12-18T08:26:29;74.53;;;32.08;;
14876;SDS011;22152;48.158;17.118;2022-12-18T08:28:56;81.10;;;34.67;;
14876;SDS011;22152;48.158;17.118;2022-12-18T08:31:24;71.78;;;28.35;;
14876;SDS011;22152;48.158;17.118;2022-12-18T08:33:52;89.60;;;38.33;;
14876;SDS011;22152;48.158;17.118;2022-12-18T08:36:18;82.90;;;37.85;;
14876;SDS011;22152;48.158;17.118;2022-12-18T08:38:45;80.88;;;38.17;;
14876;SDS011;22152;48.158;17.118;2022-12-18T08:41:12;85.43;;;37.22;;
14876;SDS011;22152;48.158;17.118;2022-12-18T08:43:41;81.97;;;35.42;;
14876;SDS011;22152;48.158;17.118;2022-12-18T08:46:26;87.03;;;39.67;;
14876;SDS011;22152;48.158;17.118;2022-12-18T08:49:00;76.22;;;35.13;;
14876;SDS011;22152;48.158;17.118;2022-12-18T08:51:26;83.43;;;37.30;;
14876;SDS011;22152;48.158;17.118;2022-12-18T08:53:52;77.28;;;37.33;;
14876;SDS011;22152;48.158;17.118;2022-12-18T08:56:18;74.95;;;34.67;;
14876;SDS011;22152;48.158;17.118;2022-12-18T08:58:44;77.78;;;35.67;;
14876;SDS011;22152;48.158;17.118;2022-12-18T09:01:10;79.30;;;36.17;;
14876;SDS011;22152;48.158;17.118;2022-12-18T09:03:38;76.65;;;35.65;;
14876;SDS011;22152;48.158;17.118;2022-12-18T09:06:05;79.07;;;35.58;;
14876;SDS011;22152;48.158;17.118;2022-12-18T09:08:31;77.65;;;38.33;;
14876;SDS011;22152;48.158;17.118;2022-12-18T09:11:01;77.53;;;37.30;;
14876;SDS011;22152;48.158;17.118;2022-12-18T09:13:28;79.75;;;38.45;;
14876;SDS011;22152;48.158;17.118;2022-12-18T09:15:54;68.90;;;35.15;;
14876;SDS011;22152;48.158;17.118;2022-12-18T09:18:21;81.38;;;37.45;;
14876;SDS011;22152;48.158;17.118;2022-12-18T09:20:49;82.10;;;35.50;;
14876;SDS011;22152;48.158;17.118;2022-12-18T09:23:18;75.07;;;34.85;;
14876;SDS011;22152;48.158;17.118;2022-12-18T09:25:44;83.03;;;38.25;;
14876;SDS011;22152;48.158;17.118;2022-12-18T09:28:10;66.85;;;34.33;;
14876;SDS011;22152;48.158;17.118;2022-12-18T09:30:42;76.00;;;35.35;;
14876;SDS011;22152;48.158;17.118;2022-12-18T09:33:11;73.18;;;37.03;;
14876;SDS011;22152;48.158;17.118;2022-12-18T09:35:37;78.30;;;35.75;;
14876;SDS011;22152;48.158;17.118;2022-12-18T09:38:05;74.05;;;36.25;;
14876;SDS011;22152;48.158;17.118;2022-12-18T09:40:36;70.97;;;35.90;;
14876;SDS011;22152;48.158;17.118;2022-12-18T09:43:09;68.75;;;34.20;;
14876;SDS011;22152;48.158;17.118;2022-12-18T09:45:47;72.75;;;36.33;;
14876;SDS011;22152;48.158;17.118;2022-12-18T09:48:23;70.15;;;34.63;;
14876;SDS011;22152;48.158;17.118;2022-12-18T09:50:58;73.10;;;35.33;;
14876;SDS011;22152;48.158;17.118;2022-12-18T09:53:31;71.63;;;36.40;;
14876;SDS011;22152;48.158;17.118;2022-12-18T09:56:00;70.32;;;35.05;;
14876;SDS011;22152;48.158;17.118;2022-12-18T10:01:12;66.07;;;33.17;;
14876;SDS011;22152;48.158;17.118;2022-12-18T10:03:43;68.40;;;34.55;;
14876;SDS011;22152;48.158;17.118;2022-12-18T10:15:02;70.75;;;33.50;;
14876;SDS011;22152;48.158;17.118;2022-12-18T10:17:45;74.95;;;34.55;;
14876;SDS011;22152;48.158;17.118;2022-12-18T10:21:10;70.38;;;34.00;;
14876;SDS011;22152;48.158;17.118;2022-12-18T10:23:54;69.55;;;31.67;;
14876;SDS011;22152;48.158;17.118;2022-12-18T10:26:49;66.90;;;32.50;;
14876;SDS011;22152;48.158;17.118;2022-12-18T10:29:15;64.05;;;32.53;;
14876;SDS011;22152;48.158;17.118;2022-12-18T10:31:42;71.78;;;34.35;;
14876;SDS011;22152;48.158;17.118;2022-12-18T10:34:11;72.80;;;33.17;;
14876;SDS011;22152;48.158;17.118;2022-12-18T10:36:40;70.55;;;33.38;;
14876;SDS011;22152;48.158;17.118;2022-12-18T10:39:14;77.93;;;35.63;;
14876;SDS011;22152;48.158;17.118;2022-12-18T10:41:40;67.85;;;33.40;;
14876;SDS011;22152;48.158;17.118;2022-12-18T10:44:16;69.50;;;33.35;;
14876;SDS011;22152;48.158;17.118;2022-12-18T10:46:43;75.03;;;32.10;;
14876;SDS011;22152;48.158;17.118;2022-12-18T10:49:29;68.20;;;33.22;;
14876;SDS011;22152;48.158;17.118;2022-12-18T10:52:07;68.67;;;33.53;;
14876;SDS011;22152;48.158;17.118;2022-12-18T10:54:54;73.15;;;33.67;;
14876;SDS011;22152;48.158;17.118;2022-12-18T11:00:22;71.25;;;34.17;;
14876;SDS011;22152;48.158;17.118;2022-12-18T11:02:50;74.95;;;35.92;;
14876;SDS011;22152;48.158;17.118;2022-12-18T11:05:27;68.55;;;34.20;;
14876;SDS011;22152;48.158;17.118;2022-12-18T11:08:02;71.80;;;33.85;;
14876;SDS011;22152;48.158;17.118;2022-12-18T11:10:32;68.25;;;33.67;;
14876;SDS011;22152;48.158;17.118;2022-12-18T11:13:23;70.38;;;33.72;;
14876;SDS011;22152;48.158;17.118;2022-12-18T11:15:51;71.82;;;33.67;;
14876;SDS011;22152;48.158;17.118;2022-12-18T11:18:31;74.07;;;35.60;;
14876;SDS011;22152;48.158;17.118;2022-12-18T11:21:06;73.43;;;33.28;;
14876;SDS011;22152;48.158;17.118;2022-12-18T11:23:35;75.35;;;34.85;;
14876;SDS011;22152;48.158;17.118;2022-12-18T11:26:12;68.07;;;34.10;;
14876;SDS011;22152;48.158;17.118;2022-12-18T11:31:20;71.57;;;35.53;;
14876;SDS011;22152;48.158;17.118;2022-12-18T11:36:47;68.13;;;34.33;;
14876;SDS011;22152;48.158;17.118;2022-12-18T11:42:12;68.57;;;34.13;;
14876;SDS011;22152;48.158;17.118;2022-12-18T11:47:57;67.88;;;35.05;;
14876;SDS011;22152;48.158;17.118;2022-12-18T11:55:56;67.13;;;33.10;;
14876;SDS011;22152;48.158;17.118;2022-12-18T12:04:23;70.80;;;34.35;;
14876;SDS011;22152;48.158;17.118;2022-12-18T12:07:17;73.07;;;36.40;;
14876;SDS011;22152;48.158;17.118;2022-12-18T12:21:42;71.72;;;33.83;;
14876;SDS011;22152;48.158;17.118;2022-12-18T12:27:22;69.05;;;33.63;;
14876;SDS011;22152;48.158;17.118;2022-12-18T12:30:35;69.45;;;32.35;;
14876;SDS011;22152;48.158;17.118;2022-12-18T12:36:32;72.03;;;33.50;;
14876;SDS011;22152;48.158;17.118;2022-12-18T12:39:21;65.68;;;31.08;;
14876;SDS011;22152;48.158;17.118;2022-12-18T12:41:53;73.65;;;35.63;;
14876;SDS011;22152;48.158;17.118;2022-12-18T12:44:39;75.15;;;34.22;;
14876;SDS011;22152;48.158;17.118;2022-12-18T12:47:14;76.93;;;35.38;;
14876;SDS011;22152;48.158;17.118;2022-12-18T12:49:52;79.47;;;35.65;;
14876;SDS011;22152;48.158;17.118;2022-12-18T12:52:39;68.60;;;32.78;;
14876;SDS011;22152;48.158;17.118;2022-12-18T12:55:14;78.13;;;36.47;;
14876;SDS011;22152;48.158;17.118;2022-12-18T13:00:54;66.82;;;33.53;;
14876;SDS011;22152;48.158;17.118;2022-12-18T13:03:44;64.65;;;32.53;;
14876;SDS011;22152;48.158;17.118;2022-12-18T13:09:18;71.10;;;33.15;;
14876;SDS011;22152;48.158;17.118;2022-12-18T13:11:47;72.28;;;34.50;;
14876;SDS011;22152;48.158;17.118;2022-12-18T13:14:35;76.78;;;36.38;;
14876;SDS011;22152;48.158;17.118;2022-12-18T13:20:10;79.25;;;36.50;;
14876;SDS011;22152;48.158;17.118;2022-12-18T13:25:30;70.35;;;34.03;;
14876;SDS011;22152;48.158;17.118;2022-12-18T13:28:10;66.82;;;33.20;;
14876;SDS011;22152;48.158;17.118;2022-12-18T13:30:45;72.57;;;33.35;;
14876;SDS011;22152;48.158;17.118;2022-12-18T13:51:58;74.35;;;34.08;;
14876;SDS011;22152;48.158;17.118;2022-12-18T13:57:02;70.60;;;35.13;;
14876;SDS011;22152;48.158;17.118;2022-12-18T13:59:35;67.65;;;35.60;;
14876;SDS011;22152;48.158;17.118;2022-12-18T14:02:15;75.80;;;35.97;;
14876;SDS011;22152;48.158;17.118;2022-12-18T14:04:47;69.78;;;33.47;;
14876;SDS011;22152;48.158;17.118;2022-12-18T14:07:32;62.22;;;31.15;;
14876;SDS011;22152;48.158;17.118;2022-12-18T14:09:59;78.63;;;35.95;;
14876;SDS011;22152;48.158;17.118;2022-12-18T14:17:57;82.20;;;37.53;;
14876;SDS011;22152;48.158;17.118;2022-12-18T14:20:25;75.82;;;38.55;;
14876;SDS011;22152;48.158;17.118;2022-12-18T14:22:53;71.68;;;37.35;;
14876;SDS011;22152;48.158;17.118;2022-12-18T14:25:22;79.43;;;38.22;;
14876;SDS011;22152;48.158;17.118;2022-12-18T14:28:04;72.60;;;37.22;;
14876;SDS011;22152;48.158;17.118;2022-12-18T14:30:40;81.97;;;39.30;;
14876;SDS011;22152;48.158;17.118;2022-12-18T14:33:12;74.22;;;38.50;;
14876;SDS011;22152;48.158;17.118;2022-12-18T14:35:58;82.32;;;41.13;;
14876;SDS011;22152;48.158;17.118;2022-12-18T14:38:37;78.80;;;41.53;;
14876;SDS011;22152;48.158;17.118;2022-12-18T14:41:05;78.65;;;39.60;;
14876;SDS011;22152;48.158;17.118;2022-12-18T14:43:37;86.38;;;42.72;;
14876;SDS011;22152;48.158;17.118;2022-12-18T14:46:24;85.70;;;42.88;;
14876;SDS011;22152;48.158;17.118;2022-12-18T14:49:18;81.88;;;42.08;;
14876;SDS011;22152;48.158;17.118;2022-12-18T14:51:54;86.22;;;42.10;;
14876;SDS011;22152;48.158;17.118;2022-12-18T14:54:27;75.65;;;38.88;;
14876;SDS011;22152;48.158;17.118;2022-12-18T14:59:29;90.55;;;41.33;;
14876;SDS011;22152;48.158;17.118;2022-12-18T15:04:45;84.68;;;42.65;;
14876;SDS011;22152;48.158;17.118;2022-12-18T15:07:22;88.28;;;43.40;;
14876;SDS011;22152;48.158;17.118;2022-12-18T15:12:34;93.85;;;41.85;;
14876;SDS011;22152;48.158;17.118;2022-12-18T15:15:03;88.97;;;40.70;;
14876;SDS011;22152;48.158;17.118;2022-12-18T15:17:30;92.30;;;41.88;;
14876;SDS011;22152;48.158;17.118;2022-12-18T15:20:03;97.90;;;43.03;;
14876;SDS011;22152;48.158;17.118;2022-12-18T15:22:36;95.38;;;42.58;;
14876;SDS011;22152;48.158;17.118;2022-12-18T15:25:03;90.00;;;39.22;;
14876;SDS011;22152;48.158;17.118;2022-12-18T15:28:26;108.03;;;46.75;;
14876;SDS011;22152;48.158;17.118;2022-12-18T15:33:42;98.35;;;43.45;;
14876;SDS011;22152;48.158;17.118;2022-12-18T15:36:37;91.97;;;45.38;;
14876;SDS011;22152;48.158;17.118;2022-12-18T15:39:03;100.57;;;44.28;;
14876;SDS011;22152;48.158;17.118;2022-12-18T15:41:30;101.85;;;46.40;;
14876;SDS011;22152;48.158;17.118;2022-12-18T15:43:58;100.85;;;45.22;;
14876;SDS011;22152;48.158;17.118;2022-12-18T15:46:25;107.38;;;46.75;;
14876;SDS011;22152;48.158;17.118;2022-12-18T15:48:52;108.72;;;47.85;;
14876;SDS011;22152;48.158;17.118;2022-12-18T15:51:21;110.18;;;47.33;;
14876;SDS011;22152;48.158;17.118;2022-12-18T15:53:52;113.72;;;50.83;;
14876;SDS011;22152;48.158;17.118;2022-12-18T15:56:22;105.18;;;48.67;;
14876;SDS011;22152;48.158;17.118;2022-12-18T15:59:08;115.05;;;46.47;;
14876;SDS011;22152;48.158;17.118;2022-12-18T16:01:38;96.53;;;44.03;;
14876;SDS011;22152;48.158;17.118;2022-12-18T16:04:05;96.40;;;44.92;;
14876;SDS011;22152;48.158;17.118;2022-12-18T16:06:31;103.07;;;44.58;;
14876;SDS011;22152;48.158;17.118;2022-12-18T16:08:56;100.57;;;46.60;;
14876;SDS011;22152;48.158;17.118;2022-12-18T16:11:29;105.75;;;48.00;;
14876;SDS011;22152;48.158;17.118;2022-12-18T16:16:42;103.50;;;45.72;;
14876;SDS011;22152;48.158;17.118;2022-12-18T16:19:08;101.82;;;48.22;;
14876;SDS011;22152;48.158;17.118;2022-12-18T16:21:34;101.63;;;45.42;;
14876;SDS011;22152;48.158;17.118;2022-12-18T16:24:00;102.00;;;44.90;;
14876;SDS011;22152;48.158;17.118;2022-12-18T16:26:26;114.43;;;50.35;;
14876;SDS011;22152;48.158;17.118;2022-12-18T16:28:52;101.55;;;46.90;;
14876;SDS011;22152;48.158;17.118;2022-12-18T16:31:18;106.70;;;47.38;;
14876;SDS011;22152;48.158;17.118;2022-12-18T16:33:44;102.35;;;49.95;;
14876;SDS011;22152;48.158;17.118;2022-12-18T16:36:10;107.53;;;48.45;;
14876;SDS011;22152;48.158;17.118;2022-12-18T16:38:36;105.38;;;48.15;;
14876;SDS011;22152;48.158;17.118;2022-12-18T16:41:01;102.85;;;47.10;;
14876;SDS011;22152;48.158;17.118;2022-12-18T16:43:56;106.50;;;47.17;;
14876;SDS011;22152;48.158;17.118;2022-12-18T16:46:22;102.28;;;49.60;;